Main page
METAR-TAF:

METAR-TAF

Airports :

Badajoz Airport

Badajoz, Spain

latitude: 38-53N, longitude: 006-49W, elevation: 185 m

Current weather observation

The report was made 12 minutes ago, at 20:30 UTC
Wind 7 kt from the West
Temperature 20°C
Humidity 53%
Pressure 1016 hPa
Visibility 10 km or more
no clouds below 1500 m and no cumulonimbus

METAR: LEBZ 052030Z 27007KT CAVOK 20/10 Q1016

Time: 22:42 (20:42 UTC)

Forecast

The report was made 42 minutes ago, at 20:00 UTC
Forecast valid from 05 at 21 UTC to 06 at 21 UTC
Wind 8 kt from the West
Visibility 10 km or more
no clouds below 1500 m and no cumulonimbus

TAF: LEBZ 052000Z 0521/0621 28008KT CAVOK TX29/0615Z TN10/0606Z

Weather observations and forecasts of more than 4000 airports (METAR and TAF reports).

The available stations are represented by yellow and red dots on the map.

Hover mouse over dot to see the name of the station.

Then click to see weather observations and forecasts.

To change the map : click on the green buttons with a black cross to zoom in, on the green button with a dash to zoom out, or on the green arrows for adjacent maps.


METAR-TAF: